createdAt,value
2023-03-14T00:00:43.468Z,6
2023-03-14T00:01:43.606Z,5
2023-03-14T00:02:43.639Z,5
2023-03-14T00:03:43.474Z,6
2023-03-14T00:04:49.875Z,5
2023-03-14T00:05:43.493Z,4
2023-03-14T00:06:43.492Z,3
2023-03-14T00:07:43.472Z,4
2023-03-14T00:08:43.479Z,6
2023-03-14T00:09:43.479Z,6
2023-03-14T00:10:43.477Z,4
2023-03-14T00:11:43.475Z,7
2023-03-14T00:12:43.488Z,4
2023-03-14T00:13:43.469Z,4
2023-03-14T00:14:43.507Z,6
2023-03-14T00:15:43.527Z,4
2023-03-14T00:16:43.478Z,7
2023-03-14T00:17:43.486Z,5
2023-03-14T00:18:43.499Z,4
2023-03-14T00:19:43.476Z,5
2023-03-14T00:20:43.496Z,4
2023-03-14T00:21:43.892Z,6
2023-03-14T00:22:43.487Z,3
2023-03-14T00:23:43.506Z,4
2023-03-14T00:24:43.486Z,5
2023-03-14T00:25:43.494Z,6
2023-03-14T00:26:43.478Z,7
2023-03-14T00:27:43.481Z,8
2023-03-14T00:28:43.487Z,5
2023-03-14T00:29:43.486Z,6
2023-03-14T00:30:43.476Z,7
2023-03-14T00:31:43.488Z,8
2023-03-14T00:32:43.532Z,5
2023-03-14T00:33:43.486Z,5
2023-03-14T00:34:43.519Z,5
2023-03-14T00:35:43.588Z,5
2023-03-14T00:36:43.503Z,6
2023-03-14T00:37:43.483Z,6
2023-03-14T00:38:43.490Z,5
2023-03-14T00:39:43.507Z,8
2023-03-14T00:40:43.501Z,5
2023-03-14T00:41:43.507Z,5
2023-03-14T00:42:43.504Z,4
2023-03-14T00:43:43.507Z,5
2023-03-14T00:44:43.488Z,5
2023-03-14T00:45:43.510Z,7
2023-03-14T00:46:43.515Z,6
2023-03-14T00:47:43.480Z,6
2023-03-14T00:48:43.501Z,5
2023-03-14T00:49:43.508Z,8
2023-03-14T00:50:43.491Z,5
2023-03-14T00:51:43.510Z,5
2023-03-14T00:52:43.502Z,7
2023-03-14T00:53:43.488Z,5
2023-03-14T00:54:43.487Z,8
2023-03-14T00:55:43.504Z,7
2023-03-14T00:56:43.488Z,6
2023-03-14T00:57:43.505Z,5
2023-03-14T00:58:43.493Z,6
2023-03-14T00:59:43.502Z,5
2023-03-14T01:00:43.515Z,4
2023-03-14T01:01:43.592Z,4
2023-03-14T01:02:43.631Z,4
2023-03-14T01:03:43.507Z,4
2023-03-14T01:05:43.508Z,5
2023-03-14T01:06:43.495Z,4
2023-03-14T01:07:43.498Z,4
2023-03-14T01:08:43.499Z,6
2023-03-14T01:09:43.494Z,5
2023-03-14T01:10:44.394Z,4
2023-03-14T01:11:43.493Z,4
2023-03-14T01:12:43.489Z,3
2023-03-14T01:13:43.493Z,4
2023-03-14T01:14:43.535Z,3
2023-03-14T01:15:43.524Z,3
2023-03-14T01:16:43.521Z,2
2023-03-14T01:17:43.496Z,3
2023-03-14T01:18:43.524Z,4
2023-03-14T01:19:43.555Z,5
2023-03-14T01:20:43.499Z,4
2023-03-14T01:21:43.641Z,5
2023-03-14T01:22:43.518Z,6
2023-03-14T01:23:43.520Z,3
2023-03-14T01:24:43.524Z,3
2023-03-14T01:25:43.527Z,5
2023-03-14T01:26:43.502Z,3
2023-03-14T01:27:43.508Z,3
2023-03-14T01:28:43.507Z,6
2023-03-14T01:30:43.510Z,5
2023-03-14T01:31:43.570Z,5
2023-03-14T01:32:43.548Z,5
2023-03-14T01:33:43.515Z,5
2023-03-14T01:34:43.519Z,4
2023-03-14T01:35:43.544Z,5
2023-03-14T01:37:43.542Z,5
2023-03-14T01:38:43.532Z,5
2023-03-14T01:39:43.511Z,5
2023-03-14T01:40:43.504Z,5
2023-03-14T01:41:43.630Z,4
2023-03-14T01:42:43.525Z,4
2023-03-14T01:43:43.502Z,3
2023-03-14T01:44:43.518Z,3
2023-03-14T01:45:43.538Z,4
2023-03-14T01:46:43.531Z,5
2023-03-14T01:47:43.600Z,4
2023-03-14T01:48:43.517Z,7
2023-03-14T01:49:43.527Z,3
2023-03-14T01:51:43.594Z,6
2023-03-14T01:52:43.514Z,7
2023-03-14T01:53:43.514Z,4
2023-03-14T01:54:43.535Z,4
2023-03-14T01:55:43.529Z,4
2023-03-14T01:56:43.532Z,4
2023-03-14T01:57:43.523Z,3
2023-03-14T01:58:43.526Z,2
2023-03-14T01:59:43.530Z,7
2023-03-14T02:00:43.586Z,5
2023-03-14T02:01:44.021Z,5
2023-03-14T02:02:43.512Z,4
2023-03-14T02:03:43.642Z,3
2023-03-14T02:04:43.512Z,5
2023-03-14T02:05:43.534Z,7
2023-03-14T02:06:43.541Z,5
2023-03-14T02:07:43.544Z,6
2023-03-14T02:08:43.557Z,3
2023-03-14T02:09:43.537Z,3
2023-03-14T02:10:43.531Z,2
2023-03-14T02:12:43.520Z,3
2023-03-14T02:13:43.518Z,6
2023-03-14T02:14:43.513Z,8
2023-03-14T02:15:43.522Z,5
2023-03-14T02:16:43.563Z,4
2023-03-14T02:17:43.513Z,4
2023-03-14T02:18:43.538Z,6
2023-03-14T02:19:43.507Z,2
2023-03-14T02:20:43.527Z,3
2023-03-14T02:21:43.618Z,4
2023-03-14T02:22:43.530Z,6
2023-03-14T02:23:43.518Z,3
2023-03-14T02:24:43.514Z,5
2023-03-14T02:25:43.516Z,6
2023-03-14T02:26:43.541Z,6
2023-03-14T02:27:43.517Z,5
2023-03-14T02:28:43.517Z,3
2023-03-14T02:29:43.519Z,4
2023-03-14T02:30:43.523Z,3
2023-03-14T02:31:43.725Z,7
2023-03-14T02:32:43.540Z,6
2023-03-14T02:33:43.524Z,4
2023-03-14T02:34:43.515Z,2
2023-03-14T02:35:43.554Z,6
2023-03-14T02:36:43.510Z,4
2023-03-14T02:37:43.539Z,4
2023-03-14T02:38:43.541Z,4
2023-03-14T02:39:43.526Z,2
2023-03-14T02:40:43.523Z,4
2023-03-14T02:41:43.577Z,5
2023-03-14T02:42:43.522Z,2
2023-03-14T02:43:43.520Z,6
2023-03-14T02:44:43.534Z,3
2023-03-14T02:45:43.599Z,4
2023-03-14T02:46:43.535Z,4
2023-03-14T02:47:43.517Z,5
2023-03-14T02:48:43.527Z,3
2023-03-14T02:49:43.999Z,5
2023-03-14T02:50:43.528Z,4
2023-03-14T02:51:43.527Z,5
2023-03-14T02:52:43.532Z,4
2023-03-14T02:53:43.543Z,6
2023-03-14T02:54:43.550Z,4
2023-03-14T02:55:43.522Z,6
2023-03-14T02:56:43.525Z,5
2023-03-14T02:57:43.523Z,4
2023-03-14T02:58:43.528Z,5
2023-03-14T02:59:43.521Z,6
2023-03-14T03:00:43.532Z,4
2023-03-14T03:01:43.740Z,5
2023-03-14T03:02:43.551Z,4
2023-03-14T03:03:43.641Z,6
2023-03-14T03:04:43.552Z,6
2023-03-14T03:05:43.528Z,4
2023-03-14T03:06:43.550Z,5
2023-03-14T03:07:43.547Z,5
2023-03-14T03:08:43.527Z,7
2023-03-14T03:09:43.541Z,5
2023-03-14T03:10:43.528Z,6
2023-03-14T03:11:43.528Z,4
2023-03-14T03:12:43.525Z,7
2023-03-14T03:13:43.529Z,3
2023-03-14T03:14:43.529Z,3
2023-03-14T03:15:43.521Z,4
2023-03-14T03:16:43.595Z,4
2023-03-14T03:17:43.525Z,4
2023-03-14T03:18:43.589Z,5
2023-03-14T03:19:43.535Z,4
2023-03-14T03:20:43.553Z,5
2023-03-14T03:21:43.632Z,6
2023-03-14T03:22:43.534Z,6
2023-03-14T03:23:43.543Z,4
2023-03-14T03:24:43.528Z,6
2023-03-14T03:25:43.533Z,5
2023-03-14T03:26:43.530Z,7
2023-03-14T03:27:43.569Z,4
2023-03-14T03:28:43.543Z,4
2023-03-14T03:29:43.529Z,5
2023-03-14T03:30:43.596Z,5
2023-03-14T03:31:43.539Z,5
2023-03-14T03:32:43.598Z,4
2023-03-14T03:33:43.554Z,4
2023-03-14T03:34:43.568Z,3
2023-03-14T03:35:43.598Z,6
2023-03-14T03:36:43.536Z,7
2023-03-14T03:37:43.535Z,5
2023-03-14T03:38:43.569Z,5
2023-03-14T03:39:43.545Z,8
2023-03-14T03:40:43.543Z,5
2023-03-14T03:41:43.540Z,4
2023-03-14T03:42:43.549Z,7
2023-03-14T03:43:43.544Z,4
2023-03-14T03:44:43.570Z,6
2023-03-14T03:45:43.638Z,10
2023-03-14T03:47:43.541Z,6
2023-03-14T03:48:43.549Z,5
2023-03-14T03:49:43.554Z,6
2023-03-14T03:50:43.540Z,5
2023-03-14T03:51:43.566Z,5
2023-03-14T03:52:43.565Z,5
2023-03-14T03:53:43.565Z,6
2023-03-14T03:54:43.568Z,6
2023-03-14T03:55:43.572Z,4
2023-03-14T03:56:43.551Z,7
2023-03-14T03:57:43.572Z,7
2023-03-14T03:58:43.556Z,3
2023-03-14T03:59:43.555Z,6
2023-03-14T04:00:43.585Z,5
2023-03-14T04:01:43.571Z,5
2023-03-14T04:02:43.601Z,5
2023-03-14T04:03:43.594Z,7
2023-03-14T04:04:43.575Z,5
2023-03-14T04:05:43.578Z,4
2023-03-14T04:06:43.603Z,7
2023-03-14T04:08:43.561Z,5
2023-03-14T04:09:43.549Z,7
2023-03-14T04:10:43.546Z,5
2023-03-14T04:11:43.556Z,4
2023-03-14T04:12:43.555Z,6
2023-03-14T04:13:43.563Z,6
2023-03-14T04:14:43.590Z,8
2023-03-14T04:15:43.602Z,3
2023-03-14T04:16:43.564Z,6
2023-03-14T04:17:43.565Z,5
2023-03-14T04:18:43.595Z,5
2023-03-14T04:19:43.584Z,4
2023-03-14T04:20:43.559Z,5
2023-03-14T04:21:43.655Z,3
2023-03-14T04:22:44.716Z,6
2023-03-14T04:23:43.562Z,5
2023-03-14T04:24:43.552Z,7
2023-03-14T04:25:43.576Z,4
2023-03-14T04:26:43.602Z,6
2023-03-14T04:27:43.583Z,4
2023-03-14T04:29:43.580Z,4
2023-03-14T04:30:43.555Z,4
2023-03-14T04:31:43.604Z,6
2023-03-14T04:32:43.657Z,6
2023-03-14T04:33:45.014Z,6
2023-03-14T04:34:43.567Z,4
2023-03-14T04:35:43.638Z,6
2023-03-14T04:36:43.569Z,3
2023-03-14T04:37:43.578Z,5
2023-03-14T04:38:43.572Z,5
2023-03-14T04:39:43.564Z,5
2023-03-14T04:40:43.574Z,3
2023-03-14T04:41:44.372Z,5
2023-03-14T04:42:43.568Z,4
2023-03-14T04:43:43.579Z,3
2023-03-14T04:44:43.566Z,3
2023-03-14T04:45:43.579Z,5
2023-03-14T04:46:43.651Z,3
2023-03-14T04:47:43.564Z,3
2023-03-14T04:48:43.589Z,3
2023-03-14T04:49:43.567Z,3
2023-03-14T04:50:43.598Z,4
2023-03-14T04:51:43.584Z,2
2023-03-14T04:52:43.564Z,2
2023-03-14T04:53:43.598Z,6
2023-03-14T04:54:43.572Z,3
2023-03-14T04:55:43.562Z,3
2023-03-14T04:56:43.569Z,3
2023-03-14T04:57:43.574Z,4
2023-03-14T04:58:43.580Z,3
2023-03-14T04:59:43.580Z,5
2023-03-14T05:00:43.568Z,3
2023-03-14T05:01:43.613Z,3
2023-03-14T05:02:43.641Z,3
2023-03-14T05:03:43.564Z,4
2023-03-14T05:04:43.579Z,3
2023-03-14T05:05:43.609Z,2
2023-03-14T05:06:43.587Z,5
2023-03-14T05:07:43.578Z,3
2023-03-14T05:08:43.578Z,4
2023-03-14T05:09:43.580Z,2
2023-03-14T05:10:43.575Z,2
2023-03-14T05:11:43.572Z,3
2023-03-14T05:12:43.603Z,4
2023-03-14T05:13:43.587Z,2
2023-03-14T05:14:43.585Z,2
2023-03-14T05:15:43.599Z,5
2023-03-14T05:16:43.559Z,7
2023-03-14T05:17:43.570Z,2
2023-03-14T05:18:43.579Z,5
2023-03-14T05:19:43.571Z,4
2023-03-14T05:20:43.569Z,2
2023-03-14T05:21:43.578Z,3
2023-03-14T05:22:43.580Z,2
2023-03-14T05:23:43.593Z,2
2023-03-14T05:24:43.618Z,3
2023-03-14T05:25:43.575Z,4
2023-03-14T05:26:43.585Z,2
2023-03-14T05:27:43.582Z,3
2023-03-14T05:28:43.648Z,5
2023-03-14T05:29:43.592Z,3
2023-03-14T05:30:43.566Z,3
2023-03-14T05:31:43.628Z,3
2023-03-14T05:32:43.645Z,3
2023-03-14T05:33:43.571Z,3
2023-03-14T05:34:43.582Z,3
2023-03-14T05:35:43.620Z,3
2023-03-14T05:36:43.586Z,4
2023-03-14T05:37:43.585Z,4
2023-03-14T05:38:43.567Z,2
2023-03-14T05:39:43.579Z,5
2023-03-14T05:40:43.576Z,4
2023-03-14T05:41:43.575Z,3
2023-03-14T05:42:43.570Z,3
2023-03-14T05:43:43.593Z,3
2023-03-14T05:44:43.579Z,5
2023-03-14T05:45:43.613Z,3
2023-03-14T05:46:43.624Z,4
2023-03-14T05:47:43.593Z,5
2023-03-14T05:48:43.581Z,4
2023-03-14T05:49:43.579Z,6
2023-03-14T05:50:43.598Z,7
2023-03-14T05:51:43.587Z,7
2023-03-14T05:52:43.592Z,8
2023-03-14T05:53:43.601Z,7
2023-03-14T05:54:43.605Z,6
2023-03-14T05:55:43.636Z,6
2023-03-14T05:56:43.594Z,5
2023-03-14T05:57:43.600Z,5
2023-03-14T05:58:43.577Z,5
2023-03-14T05:59:43.580Z,4
2023-03-14T06:00:43.595Z,4
2023-03-14T06:01:43.633Z,5
2023-03-14T06:02:43.590Z,4
2023-03-14T06:03:43.707Z,5
2023-03-14T06:04:43.589Z,5
2023-03-14T06:05:43.587Z,6
2023-03-14T06:06:43.585Z,4
2023-03-14T06:07:43.602Z,4
2023-03-14T06:08:43.583Z,5
2023-03-14T06:09:43.610Z,3
2023-03-14T06:10:43.597Z,5
2023-03-14T06:11:43.580Z,4
2023-03-14T06:12:43.595Z,5
2023-03-14T06:13:43.604Z,4
2023-03-14T06:14:43.597Z,3
2023-03-14T06:15:43.599Z,4
2023-03-14T06:16:43.662Z,4
2023-03-14T06:17:43.591Z,4
2023-03-14T06:18:43.587Z,4
2023-03-14T06:19:43.577Z,4
2023-03-14T06:20:43.611Z,4
2023-03-14T06:21:43.584Z,10
2023-03-14T06:22:43.604Z,3
2023-03-14T06:23:43.582Z,4
2023-03-14T06:24:43.591Z,5
2023-03-14T06:25:44.900Z,2
2023-03-14T06:26:43.645Z,3
2023-03-14T06:27:43.592Z,3
2023-03-14T06:28:43.596Z,3
2023-03-14T06:29:43.598Z,3
2023-03-14T06:30:43.618Z,2
2023-03-14T06:31:43.587Z,2
2023-03-14T06:32:43.726Z,2
2023-03-14T06:33:43.601Z,2
2023-03-14T06:34:43.597Z,3
2023-03-14T06:35:43.638Z,5
2023-03-14T06:36:43.611Z,4
2023-03-14T06:37:43.623Z,3
2023-03-14T06:38:43.625Z,3
2023-03-14T06:39:43.622Z,2
2023-03-14T06:40:43.602Z,9
2023-03-14T06:41:43.596Z,3
2023-03-14T06:42:43.616Z,2
2023-03-14T06:43:43.617Z,2
2023-03-14T06:44:43.594Z,3
2023-03-14T06:45:43.662Z,2
2023-03-14T06:46:43.600Z,2
2023-03-14T06:47:43.604Z,4
2023-03-14T06:48:43.611Z,3
2023-03-14T06:49:43.601Z,2
2023-03-14T06:50:43.593Z,3
2023-03-14T06:51:43.605Z,3
2023-03-14T06:52:43.629Z,2
2023-03-14T06:53:43.613Z,5
2023-03-14T06:54:43.614Z,4
2023-03-14T06:55:43.614Z,3
2023-03-14T06:56:43.619Z,2
2023-03-14T06:57:43.634Z,3
2023-03-14T06:58:43.609Z,3
2023-03-14T06:59:43.595Z,6
2023-03-14T07:00:43.600Z,3
2023-03-14T07:01:43.644Z,3
2023-03-14T07:02:43.791Z,3
2023-03-14T07:03:43.625Z,3
2023-03-14T07:04:43.669Z,2
2023-03-14T07:05:43.612Z,2
2023-03-14T07:06:43.624Z,3
2023-03-14T07:07:43.618Z,3
2023-03-14T07:08:43.601Z,3
2023-03-14T07:09:43.640Z,3
2023-03-14T07:10:43.638Z,3
2023-03-14T07:11:43.613Z,3
2023-03-14T07:12:43.608Z,2
2023-03-14T07:13:43.602Z,2
2023-03-14T07:14:43.598Z,4
2023-03-14T07:15:43.648Z,2
2023-03-14T07:16:43.614Z,4
2023-03-14T07:17:43.609Z,1
2023-03-14T07:18:43.634Z,2
2023-03-14T07:19:43.623Z,2
2023-03-14T07:20:43.621Z,2
2023-03-14T07:21:43.972Z,3
2023-03-14T07:22:43.611Z,2
2023-03-14T07:23:43.626Z,2
2023-03-14T07:24:43.639Z,2
2023-03-14T07:26:43.623Z,1
2023-03-14T07:27:43.629Z,2
2023-03-14T07:28:43.639Z,3
2023-03-14T07:29:43.612Z,3
2023-03-14T07:30:43.725Z,2
2023-03-14T07:31:43.635Z,2
2023-03-14T07:32:43.684Z,2
2023-03-14T07:33:43.636Z,3
2023-03-14T07:34:43.617Z,3
2023-03-14T07:35:43.642Z,3
2023-03-14T07:36:43.614Z,3
2023-03-14T07:37:43.642Z,3
2023-03-14T07:38:43.633Z,3
2023-03-14T07:39:43.614Z,2
2023-03-14T07:40:43.620Z,3
2023-03-14T07:41:43.619Z,3
2023-03-14T07:42:43.616Z,4
2023-03-14T07:43:43.628Z,4
2023-03-14T07:44:43.651Z,3
2023-03-14T07:45:43.637Z,3
2023-03-14T07:46:43.692Z,4
2023-03-14T07:47:43.638Z,3
2023-03-14T07:48:43.640Z,4
2023-03-14T07:49:43.616Z,4
2023-03-14T07:50:43.628Z,3
2023-03-14T07:51:43.638Z,4
2023-03-14T07:52:43.620Z,3
2023-03-14T07:53:43.630Z,3
2023-03-14T07:54:43.635Z,2
2023-03-14T07:55:43.653Z,3
2023-03-14T07:56:43.637Z,3
2023-03-14T07:57:43.644Z,3
2023-03-14T07:58:43.666Z,4
2023-03-14T07:59:43.673Z,3
2023-03-14T08:00:43.638Z,3
2023-03-14T08:01:43.633Z,3
2023-03-14T08:02:43.684Z,4
2023-03-14T08:03:43.739Z,5
2023-03-14T08:04:43.646Z,3
2023-03-14T08:05:43.650Z,3
2023-03-14T08:06:43.649Z,4
2023-03-14T08:07:43.651Z,3
2023-03-14T08:08:43.639Z,3
2023-03-14T08:09:43.631Z,4
2023-03-14T08:10:43.655Z,4
2023-03-14T08:11:43.630Z,3
2023-03-14T08:12:43.627Z,5
2023-03-14T08:13:43.622Z,4
2023-03-14T08:14:43.633Z,4
2023-03-14T08:15:43.696Z,4
2023-03-14T08:16:43.626Z,4
2023-03-14T08:17:43.642Z,4
2023-03-14T08:18:43.642Z,4
2023-03-14T08:19:43.652Z,6
2023-03-14T08:20:43.677Z,4
2023-03-14T08:21:43.663Z,4
2023-03-14T08:22:43.651Z,4
2023-03-14T08:24:43.624Z,4
2023-03-14T08:26:43.634Z,9
2023-03-14T08:27:43.641Z,4
2023-03-14T08:28:43.635Z,5
2023-03-14T08:29:43.641Z,6
2023-03-14T08:30:46.803Z,4
2023-03-14T08:31:43.737Z,6
2023-03-14T08:32:43.716Z,4
2023-03-14T08:33:43.632Z,6
2023-03-14T08:34:43.640Z,4
2023-03-14T08:35:43.646Z,7
2023-03-14T08:36:43.639Z,5
2023-03-14T08:37:43.642Z,6
2023-03-14T08:38:43.792Z,6
2023-03-14T08:39:43.647Z,4
2023-03-14T08:40:43.665Z,5
2023-03-14T08:41:43.638Z,4
2023-03-14T08:42:43.645Z,7
2023-03-14T08:43:43.645Z,5
2023-03-14T08:44:43.724Z,4
2023-03-14T08:45:43.655Z,5
2023-03-14T08:46:43.692Z,3
2023-03-14T08:47:43.636Z,3
2023-03-14T08:48:43.642Z,3
2023-03-14T08:49:43.779Z,3
2023-03-14T08:50:43.638Z,3
2023-03-14T08:51:43.643Z,2
2023-03-14T08:52:43.726Z,3
2023-03-14T08:53:43.691Z,3
2023-03-14T08:54:43.641Z,3
2023-03-14T08:55:43.673Z,3
2023-03-14T08:56:43.636Z,4
2023-03-14T08:57:43.635Z,2
2023-03-14T08:58:43.650Z,3
2023-03-14T08:59:43.653Z,3
2023-03-14T09:00:43.648Z,4
2023-03-14T09:01:43.757Z,4
2023-03-14T09:02:43.726Z,4
2023-03-14T09:03:43.726Z,5
2023-03-14T09:04:43.655Z,4
2023-03-14T09:05:43.667Z,5
2023-03-14T09:06:43.666Z,3
2023-03-14T09:07:43.640Z,3
2023-03-14T09:08:43.658Z,3
2023-03-14T09:09:43.687Z,3
2023-03-14T09:10:43.659Z,2
2023-03-14T09:11:43.668Z,3
2023-03-14T09:12:43.656Z,2
2023-03-14T09:13:43.671Z,3
2023-03-14T09:14:43.660Z,4
2023-03-14T09:15:43.652Z,3
2023-03-14T09:16:43.686Z,3
2023-03-14T09:17:43.655Z,3
2023-03-14T09:18:43.678Z,3
2023-03-14T09:19:43.660Z,2
2023-03-14T09:20:43.651Z,2
2023-03-14T09:21:43.677Z,2
2023-03-14T09:22:43.661Z,1
2023-03-14T09:23:46.350Z,1
2023-03-14T09:24:43.657Z,1
2023-03-14T09:25:43.659Z,2
2023-03-14T09:26:43.654Z,1
2023-03-14T09:27:43.649Z,1
2023-03-14T09:28:43.656Z,1
2023-03-14T09:29:43.681Z,1
2023-03-14T09:30:43.681Z,1
2023-03-14T09:31:43.716Z,1
2023-03-14T09:32:43.875Z,1
2023-03-14T09:33:43.670Z,1
2023-03-14T09:34:43.648Z,1
2023-03-14T09:35:43.757Z,1
2023-03-14T09:36:43.657Z,1
2023-03-14T09:37:43.671Z,2
2023-03-14T09:38:43.727Z,2
2023-03-14T09:39:43.671Z,1
2023-03-14T09:40:43.663Z,2
2023-03-14T09:41:43.678Z,2
2023-03-14T09:42:43.659Z,1
2023-03-14T09:43:43.656Z,2
2023-03-14T09:44:43.662Z,2
2023-03-14T09:45:43.726Z,1
2023-03-14T09:46:43.665Z,1
2023-03-14T09:47:56.491Z,1
2023-03-14T09:48:43.671Z,3
2023-03-14T09:49:43.692Z,2
2023-03-14T09:50:43.666Z,1
2023-03-14T09:51:43.670Z,1
2023-03-14T09:52:43.655Z,3
2023-03-14T09:53:43.654Z,2
2023-03-14T09:54:43.653Z,2
2023-03-14T09:55:43.672Z,3
2023-03-14T09:56:43.653Z,2
2023-03-14T09:57:43.662Z,2
2023-03-14T09:58:43.650Z,2
2023-03-14T09:59:43.667Z,2
2023-03-14T10:00:43.677Z,3
2023-03-14T10:01:43.732Z,3
2023-03-14T10:02:43.664Z,2
2023-03-14T10:03:44.252Z,2
2023-03-14T10:04:43.709Z,2
2023-03-14T10:05:43.645Z,2
2023-03-14T10:06:43.653Z,2
2023-03-14T10:07:43.649Z,2
2023-03-14T10:08:43.647Z,2
2023-03-14T10:09:43.680Z,3
2023-03-14T10:10:43.655Z,2
2023-03-14T10:11:43.657Z,2
2023-03-14T10:12:43.691Z,2
2023-03-14T10:13:43.653Z,2
2023-03-14T10:14:43.668Z,2
2023-03-14T10:15:43.651Z,2
2023-03-14T10:16:43.738Z,2
2023-03-14T10:17:43.719Z,2
2023-03-14T10:18:43.661Z,4
2023-03-14T10:19:43.650Z,1
2023-03-14T10:20:43.657Z,3
2023-03-14T10:21:43.660Z,2
2023-03-14T10:22:43.680Z,2
2023-03-14T10:23:43.674Z,2
2023-03-14T10:24:43.653Z,2
2023-03-14T10:25:43.661Z,4
2023-03-14T10:26:43.658Z,2
2023-03-14T10:27:43.665Z,3
2023-03-14T10:28:43.676Z,3
2023-03-14T10:29:43.699Z,3
2023-03-14T10:30:43.709Z,2
2023-03-14T10:31:43.671Z,3
2023-03-14T10:32:43.718Z,2
2023-03-14T10:33:43.669Z,2
2023-03-14T10:34:43.720Z,3
2023-03-14T10:35:43.697Z,3
2023-03-14T10:36:43.758Z,3
2023-03-14T10:37:43.676Z,1
2023-03-14T10:38:43.663Z,1
2023-03-14T10:39:43.664Z,1
2023-03-14T10:40:43.662Z,2
2023-03-14T10:41:43.668Z,2
2023-03-14T10:42:43.679Z,3
2023-03-14T10:43:43.683Z,1
2023-03-14T10:44:43.689Z,2
2023-03-14T10:45:43.666Z,2
2023-03-14T10:46:43.682Z,2
2023-03-14T10:48:43.681Z,2
2023-03-14T10:49:43.678Z,3
2023-03-14T10:50:43.672Z,2
2023-03-14T10:51:43.670Z,3
2023-03-14T10:53:01.437Z,3
2023-03-14T10:53:43.683Z,4
2023-03-14T10:54:43.667Z,2
2023-03-14T10:55:43.701Z,3
2023-03-14T10:56:43.695Z,2
2023-03-14T10:57:43.703Z,3
2023-03-14T10:58:43.670Z,2
2023-03-14T10:59:43.686Z,3
2023-03-14T11:00:43.669Z,5
2023-03-14T11:01:43.733Z,2
2023-03-14T11:02:43.669Z,3
2023-03-14T11:03:43.674Z,3
2023-03-14T11:04:43.794Z,7
2023-03-14T11:05:43.791Z,3
2023-03-14T11:06:43.852Z,3
2023-03-14T11:07:43.688Z,2
2023-03-14T11:08:43.691Z,2
2023-03-14T11:09:43.674Z,3
2023-03-14T11:10:43.677Z,2
2023-03-14T11:11:43.687Z,3
2023-03-14T11:12:44.058Z,2
2023-03-14T11:13:43.726Z,3
2023-03-14T11:14:43.686Z,2
2023-03-14T11:15:43.748Z,5
2023-03-14T11:16:43.670Z,3
2023-03-14T11:17:43.706Z,2
2023-03-14T11:18:43.679Z,2
2023-03-14T11:19:43.772Z,1
2023-03-14T11:20:43.678Z,2
2023-03-14T11:21:43.705Z,3
2023-03-14T11:22:43.716Z,1
2023-03-14T11:23:43.692Z,2
2023-03-14T11:24:43.713Z,4
2023-03-14T11:25:43.696Z,2
2023-03-14T11:26:43.685Z,2
2023-03-14T11:27:43.685Z,2
2023-03-14T11:28:43.675Z,3
2023-03-14T11:30:43.687Z,1
2023-03-14T11:31:45.455Z,4
2023-03-14T11:32:43.969Z,2
2023-03-14T11:33:43.692Z,2
2023-03-14T11:34:43.678Z,3
2023-03-14T11:35:43.756Z,1
2023-03-14T11:36:43.738Z,1
2023-03-14T11:37:43.675Z,2
2023-03-14T11:38:43.692Z,2
2023-03-14T11:39:43.710Z,4
2023-03-14T11:40:43.704Z,2
2023-03-14T11:41:43.681Z,2
2023-03-14T11:42:43.686Z,2
2023-03-14T11:43:43.691Z,2
2023-03-14T11:44:43.688Z,2
2023-03-14T11:45:43.702Z,3
2023-03-14T11:46:44.262Z,2
2023-03-14T11:47:44.069Z,2
2023-03-14T11:48:43.699Z,1
2023-03-14T11:49:44.027Z,3
2023-03-14T11:51:43.724Z,1
2023-03-14T11:52:44.562Z,2
2023-03-14T11:53:43.691Z,3
2023-03-14T11:54:43.688Z,1
2023-03-14T11:55:43.701Z,2
2023-03-14T11:56:43.695Z,5
2023-03-14T11:57:43.695Z,1
2023-03-14T11:58:44.497Z,3
2023-03-14T11:59:43.686Z,3
2023-03-14T12:00:43.693Z,2
2023-03-14T12:01:43.728Z,6
2023-03-14T12:02:43.695Z,2
2023-03-14T12:03:43.775Z,3
2023-03-14T12:04:44.576Z,5
2023-03-14T12:05:43.685Z,2
2023-03-14T12:06:43.699Z,5
2023-03-14T12:07:43.737Z,2
2023-03-14T12:08:43.726Z,5
2023-03-14T12:09:43.697Z,3
2023-03-14T12:10:43.699Z,8
2023-03-14T12:11:43.695Z,2
2023-03-14T12:12:43.697Z,4
2023-03-14T12:13:43.704Z,3
2023-03-14T12:14:43.699Z,3
2023-03-14T12:15:43.686Z,3
2023-03-14T12:16:43.761Z,5
2023-03-14T12:17:43.712Z,2
2023-03-14T12:18:43.719Z,2
2023-03-14T12:19:43.734Z,4
2023-03-14T12:20:43.689Z,5
2023-03-14T12:21:43.699Z,5
2023-03-14T12:22:43.700Z,5
2023-03-14T12:23:43.697Z,7
2023-03-14T12:24:43.704Z,3
2023-03-14T12:25:43.705Z,3
2023-03-14T12:26:43.700Z,3
2023-03-14T12:27:43.698Z,3
2023-03-14T12:28:43.703Z,4
2023-03-14T12:29:43.700Z,6
2023-03-14T12:30:43.702Z,4
2023-03-14T12:31:43.746Z,6
2023-03-14T12:32:43.734Z,9
2023-03-14T12:33:43.705Z,4
2023-03-14T12:34:44.102Z,5
2023-03-14T12:35:44.025Z,3
2023-03-14T12:36:43.706Z,5
2023-03-14T12:37:43.691Z,4
2023-03-14T12:38:43.724Z,6
2023-03-14T12:39:43.703Z,3
2023-03-14T12:40:43.698Z,4
2023-03-14T12:41:43.698Z,9
2023-03-14T12:42:45.739Z,3
2023-03-14T12:43:43.711Z,5
2023-03-14T12:44:43.699Z,6
2023-03-14T12:45:45.231Z,6
2023-03-14T12:46:43.839Z,6
2023-03-14T12:47:43.701Z,6
2023-03-14T12:48:43.697Z,3
2023-03-14T12:49:43.698Z,6
2023-03-14T12:50:43.702Z,7
2023-03-14T12:51:43.697Z,5
2023-03-14T12:52:45.096Z,6
2023-03-14T12:53:43.714Z,7
2023-03-14T12:54:43.699Z,7
2023-03-14T12:55:43.711Z,7
2023-03-14T12:56:43.707Z,7
2023-03-14T12:57:43.723Z,7
2023-03-14T12:58:45.256Z,15
2023-03-14T12:59:43.706Z,6
2023-03-14T13:00:43.720Z,6
2023-03-14T13:01:43.704Z,5
2023-03-14T13:02:43.695Z,10
2023-03-14T13:03:43.762Z,9
2023-03-14T13:04:43.968Z,8
2023-03-14T13:05:43.718Z,8
2023-03-14T13:06:43.712Z,9
2023-03-14T13:07:43.702Z,6
2023-03-14T13:08:43.714Z,8
2023-03-14T13:09:43.761Z,6
2023-03-14T13:10:44.218Z,14
2023-03-14T13:11:43.718Z,11
2023-03-14T13:12:43.711Z,14
2023-03-14T13:13:44.354Z,5
2023-03-14T13:14:43.704Z,8
2023-03-14T13:15:43.695Z,10
2023-03-14T13:16:43.746Z,10
2023-03-14T13:17:43.756Z,7
2023-03-14T13:18:43.716Z,7
2023-03-14T13:19:43.707Z,12
2023-03-14T13:20:43.699Z,8
2023-03-14T13:21:43.714Z,13
2023-03-14T13:22:43.708Z,8
2023-03-14T13:24:43.707Z,5
2023-03-14T13:25:43.718Z,8
2023-03-14T13:26:43.748Z,7
2023-03-14T13:27:43.724Z,8
2023-03-14T13:28:43.715Z,10
2023-03-14T13:29:43.701Z,9
2023-03-14T13:30:43.769Z,8
2023-03-14T13:31:43.729Z,6
2023-03-14T13:32:43.763Z,13
2023-03-14T13:33:43.714Z,7
2023-03-14T13:34:43.908Z,7
2023-03-14T13:35:43.804Z,8
2023-03-14T13:36:43.727Z,13
2023-03-14T13:37:43.712Z,14
2023-03-14T13:38:43.716Z,14
2023-03-14T13:39:43.812Z,9
2023-03-14T13:40:43.882Z,9
2023-03-14T13:41:43.727Z,3
2023-03-14T13:42:43.733Z,7
2023-03-14T13:43:43.735Z,13
2023-03-14T13:45:43.730Z,11
2023-03-14T13:46:43.768Z,10
2023-03-14T13:48:43.714Z,13
2023-03-14T13:49:43.708Z,14
2023-03-14T13:50:44.593Z,10
2023-03-14T13:51:43.713Z,9
2023-03-14T13:52:43.713Z,8
2023-03-14T13:53:43.748Z,11
2023-03-14T13:54:43.716Z,10
2023-03-14T13:55:43.715Z,10
2023-03-14T13:56:43.716Z,9
2023-03-14T13:57:43.720Z,11
2023-03-14T13:58:43.737Z,10
2023-03-14T13:59:43.728Z,15
2023-03-14T14:00:43.715Z,8
2023-03-14T14:01:43.844Z,10
2023-03-14T14:02:43.707Z,10
2023-03-14T14:03:43.727Z,7
2023-03-14T14:04:44.140Z,8
2023-03-14T14:07:43.711Z,11
2023-03-14T14:08:43.734Z,6
2023-03-14T14:09:43.750Z,8
2023-03-14T14:10:43.718Z,11
2023-03-14T14:11:50.966Z,5
2023-03-14T14:12:43.730Z,7
2023-03-14T14:13:43.729Z,4
2023-03-14T14:14:43.727Z,7
2023-03-14T14:15:43.810Z,6
2023-03-14T14:16:43.904Z,6
2023-03-14T14:17:43.732Z,6
2023-03-14T14:18:43.724Z,7
2023-03-14T14:19:43.744Z,6
2023-03-14T14:20:45.822Z,7
2023-03-14T14:21:43.724Z,9
2023-03-14T14:22:43.739Z,6
2023-03-14T14:23:43.745Z,9
2023-03-14T14:24:43.725Z,8
2023-03-14T14:25:43.733Z,7
2023-03-14T14:27:43.786Z,8
2023-03-14T14:28:43.718Z,6
2023-03-14T14:29:43.749Z,8
2023-03-14T14:30:43.773Z,9
2023-03-14T14:31:44.861Z,6
2023-03-14T14:32:43.830Z,5
2023-03-14T14:33:43.736Z,6
2023-03-14T14:34:43.760Z,7
2023-03-14T14:35:43.809Z,8
2023-03-14T14:36:43.727Z,6
2023-03-14T14:37:43.733Z,7
2023-03-14T14:38:43.737Z,7
2023-03-14T14:39:43.730Z,6
2023-03-14T14:40:43.743Z,9
2023-03-14T14:41:43.730Z,5
2023-03-14T14:42:43.789Z,7
2023-03-14T14:43:43.756Z,8
2023-03-14T14:44:43.734Z,7
2023-03-14T14:45:43.728Z,7
2023-03-14T14:46:44.930Z,6
2023-03-14T14:47:43.747Z,4
2023-03-14T14:48:43.733Z,7
2023-03-14T14:49:43.729Z,7
2023-03-14T14:50:43.734Z,6
2023-03-14T14:51:43.740Z,8
2023-03-14T14:52:43.746Z,7
2023-03-14T14:53:43.744Z,5
2023-03-14T14:54:43.748Z,4
2023-03-14T14:55:43.741Z,7
2023-03-14T14:56:43.728Z,8
2023-03-14T14:57:43.736Z,8
2023-03-14T14:58:43.730Z,7
2023-03-14T14:59:43.742Z,7
2023-03-14T15:00:44.633Z,10
2023-03-14T15:01:43.839Z,5
2023-03-14T15:02:43.818Z,6
2023-03-14T15:03:43.740Z,6
2023-03-14T15:04:43.738Z,7
2023-03-14T15:05:43.741Z,7
2023-03-14T15:06:43.757Z,10